Time;durP1;ratioP1;P1;durP2;ratioP2;P2;SDS_P1;SDS_P2;PMS_P1;PMS_P2;Temp;Humidity;BMP_temperature;BMP_pressure;BME280_temperature;BME280_humidity;BME280_pressure;Samples;Min_cycle;Max_cycle;Signal;HPM_P1;HPM_P2
2021/01/17 00:01:44;;;;;;;14.60;8.93;;;;;;;-2.28;67.07;100999.53;5069011;28;20434;-79
2021/01/17 00:04:10;;;;;;;14.53;8.30;;;;;;;-2.27;66.31;100998.69;5068665;28;20100;-78
2021/01/17 00:06:36;;;;;;;14.80;8.67;;;;;;;-2.18;66.52;100989.66;5064534;28;20024;-79
2021/01/17 00:09:02;;;;;;;13.47;8.17;;;;;;;-2.09;66.82;100992.72;5065063;28;20036;-77
2021/01/17 00:11:27;;;;;;;12.47;7.50;;;;;;;-2.08;66.66;100997.06;5067409;28;20067;-78
2021/01/17 00:13:52;;;;;;;19.80;10.10;;;;;;;-2.14;66.97;100984.72;5068121;28;20498;-77
2021/01/17 00:16:17;;;;;;;15.87;9.83;;;;;;;-2.11;66.31;100991.75;5067367;28;20077;-78
2021/01/17 00:18:46;;;;;;;16.60;10.07;;;;;;;-2.19;66.54;100988.75;5084753;23;20012;-72
2021/01/17 00:21:11;;;;;;;16.40;10.00;;;;;;;-2.18;66.53;100981.88;5060524;28;20057;-71
2021/01/17 00:23:37;;;;;;;15.17;9.13;;;;;;;-2.19;66.84;100975.84;5062897;28;20059;-71
2021/01/17 00:26:02;;;;;;;13.53;8.37;;;;;;;-2.14;66.23;100976.97;5063521;28;20033;-72
2021/01/17 00:28:27;;;;;;;17.20;9.57;;;;;;;-2.10;66.78;100970.25;5060623;28;20174;-71
2021/01/17 00:30:52;;;;;;;13.13;8.00;;;;;;;-2.04;66.60;100974.03;5059923;28;20032;-71
2021/01/17 00:33:18;;;;;;;15.93;9.17;;;;;;;-2.03;66.45;100970.63;5060965;28;20068;-72
2021/01/17 00:35:43;;;;;;;14.17;8.63;;;;;;;-2.01;66.16;100968.13;5063372;28;20181;-71
2021/01/17 00:38:08;;;;;;;13.33;8.00;;;;;;;-2.05;66.01;100971.38;5062974;28;20052;-70
2021/01/17 00:40:34;;;;;;;15.27;8.80;;;;;;;-2.03;66.50;100964.59;5059747;28;20594;-71
2021/01/17 00:42:59;;;;;;;16.30;9.80;;;;;;;-1.99;66.49;100969.13;5059529;28;20489;-71
2021/01/17 00:45:26;;;;;;;17.50;10.13;;;;;;;-1.97;66.17;100970.06;5061946;28;20510;-72
2021/01/17 00:47:52;;;;;;;14.37;9.07;;;;;;;-1.96;66.32;100963.22;5063051;28;20024;-71
2021/01/17 00:50:21;;;;;;;15.90;9.47;;;;;;;-1.94;66.26;100967.63;5060091;28;20509;-71
2021/01/17 00:52:51;;;;;;;15.73;9.13;;;;;;;-1.97;65.98;100951.94;5041389;28;20039;-72
2021/01/17 00:55:17;;;;;;;14.17;8.53;;;;;;;-1.96;66.25;100946.00;5060396;28;20407;-72
2021/01/17 00:57:42;;;;;;;14.17;8.30;;;;;;;-2.02;66.94;100950.81;5061731;28;20039;-71
2021/01/17 01:00:13;;;;;;;15.00;9.00;;;;;;;-2.00;66.19;100950.09;5061142;28;20028;-71
2021/01/17 01:02:51;;;;;;;14.27;8.70;;;;;;;-2.13;67.28;100946.81;5041548;28;20051;-71
2021/01/17 01:05:16;;;;;;;14.43;8.80;;;;;;;-2.15;67.14;100943.25;5060647;28;20496;-72
2021/01/17 01:07:44;;;;;;;21.07;10.30;;;;;;;-2.14;67.29;100945.94;5062936;28;20043;-70
2021/01/17 01:10:11;;;;;;;14.77;7.90;;;;;;;-2.07;67.59;100949.69;5061261;28;20038;-70
2021/01/17 01:12:36;;;;;;;14.97;9.00;;;;;;;-2.04;67.08;100947.28;5059309;28;20171;-72
2021/01/17 01:15:06;;;;;;;11.13;6.97;;;;;;;-2.01;66.90;100942.28;5060069;28;20075;-72
2021/01/17 01:17:31;;;;;;;12.63;7.17;;;;;;;-2.00;67.29;100942.34;5063244;28;20067;-73
2021/01/17 01:19:57;;;;;;;12.73;7.70;;;;;;;-1.96;67.29;100939.94;5063699;28;20064;-72
2021/01/17 01:22:22;;;;;;;13.17;8.13;;;;;;;-2.04;67.20;100934.38;5061530;28;20037;-71
2021/01/17 01:24:47;;;;;;;14.17;7.90;;;;;;;-2.07;67.18;100931.59;5060096;28;20037;-72
2021/01/17 01:27:12;;;;;;;14.67;8.53;;;;;;;-2.16;67.43;100921.69;5060560;28;20400;-72
2021/01/17 01:29:38;;;;;;;12.90;7.77;;;;;;;-2.27;67.30;100921.13;5063032;28;20487;-72
2021/01/17 01:32:04;;;;;;;12.63;7.37;;;;;;;-2.42;67.09;100918.63;5063061;28;20513;-72
2021/01/17 01:34:29;;;;;;;12.33;8.20;;;;;;;-2.63;67.06;100912.34;5060233;28;20033;-72
2021/01/17 01:36:55;;;;;;;11.97;7.50;;;;;;;-2.80;67.63;100915.72;5059618;28;20033;-72
2021/01/17 01:39:20;;;;;;;13.67;7.70;;;;;;;-2.94;68.12;100912.41;5061241;28;20083;-72
2021/01/17 01:41:45;;;;;;;12.77;7.40;;;;;;;-3.09;68.60;100915.06;5063116;28;20032;-71
2021/01/17 01:44:11;;;;;;;14.10;8.17;;;;;;;-3.21;68.48;100914.38;5061044;28;20380;-71
2021/01/17 01:46:41;;;;;;;13.33;8.00;;;;;;;-3.33;68.71;100906.81;5041867;28;20546;-72
2021/01/17 01:49:08;;;;;;;13.93;7.60;;;;;;;-3.44;69.55;100900.19;5053444;28;20051;-72
2021/01/17 01:51:35;;;;;;;15.23;8.87;;;;;;;-3.59;69.05;100906.28;5069501;28;20044;-72
2021/01/17 01:54:00;;;;;;;14.80;8.63;;;;;;;-3.76;69.29;100902.72;5063481;28;20043;-72
2021/01/17 01:56:26;;;;;;;16.73;8.87;;;;;;;-3.93;70.18;100905.13;5061643;28;20418;-72
2021/01/17 01:58:54;;;;;;;15.57;9.20;;;;;;;-4.05;70.03;100895.88;5062430;28;20066;-72
2021/01/17 02:01:20;;;;;;;15.00;8.67;;;;;;;-4.09;70.66;100896.50;5060939;28;20064;-72
2021/01/17 02:03:47;;;;;;;16.90;9.73;;;;;;;-4.21;70.18;100890.66;5058808;28;20087;-72
2021/01/17 02:06:17;;;;;;;14.60;7.60;;;;;;;-4.30;71.09;100897.81;5062561;28;20458;-73
2021/01/17 02:09:11;;;;;;;14.33;8.50;;;;;;;-4.51;71.44;100892.28;5066036;28;20028;-72
2021/01/17 02:12:18;;;;;;;16.17;9.20;;;;;;;-4.63;71.56;100902.75;5041465;28;20446;-72
2021/01/17 02:14:50;;;;;;;16.53;8.57;;;;;;;-4.71;71.35;100901.41;5055868;28;20033;-72
2021/01/17 02:17:19;;;;;;;13.60;7.30;;;;;;;-4.74;72.19;100907.25;5063433;28;20029;-73
2021/01/17 02:19:57;;;;;;;16.23;9.73;;;;;;;-4.80;73.89;100911.13;5065754;28;20166;-75
2021/01/17 02:22:23;;;;;;;16.07;8.47;;;;;;;-4.82;73.57;100904.97;5063683;28;20662;-75
2021/01/17 02:24:57;;;;;;;14.53;7.73;;;;;;;-4.83;73.35;100905.78;5062446;28;20115;-75
2021/01/17 02:27:23;;;;;;;14.20;8.20;;;;;;;-4.88;72.87;100898.66;5064223;28;20074;-75
2021/01/17 02:29:50;;;;;;;12.57;7.03;;;;;;;-4.95;73.02;100898.19;5065750;28;20040;-75
2021/01/17 02:32:17;;;;;;;17.83;9.37;;;;;;;-5.05;72.78;100893.28;5064417;28;20051;-75
2021/01/17 02:34:45;;;;;;;13.63;7.33;;;;;;;-5.14;73.36;100893.59;5062248;28;20040;-75
2021/01/17 02:37:34;;;;;;;18.40;9.20;;;;;;;-5.23;74.46;100886.19;5062390;28;20033;-75
2021/01/17 02:40:03;;;;;;;16.07;8.53;;;;;;;-5.26;74.14;100893.72;5065431;28;20040;-75
2021/01/17 02:42:30;;;;;;;15.30;8.23;;;;;;;-5.33;73.93;100892.44;5061874;28;20494;-74
2021/01/17 02:44:56;;;;;;;15.10;8.70;;;;;;;-5.35;73.80;100894.00;5061926;28;20487;-75
2021/01/17 02:47:21;;;;;;;15.20;8.57;;;;;;;-5.37;74.61;100895.63;5064264;28;20044;-75
2021/01/17 02:49:47;;;;;;;14.50;8.33;;;;;;;-5.37;74.14;100895.63;5066059;28;20033;-74
2021/01/17 02:52:13;;;;;;;15.47;9.17;;;;;;;-5.39;73.58;100888.59;5063746;28;20048;-74
2021/01/17 02:54:42;;;;;;;13.83;8.03;;;;;;;-5.41;74.63;100887.63;5062312;28;20082;-75
2021/01/17 02:57:10;;;;;;;18.83;10.23;;;;;;;-5.45;74.04;100883.94;5062141;28;20032;-75
2021/01/17 02:59:48;;;;;;;17.17;10.00;;;;;;;-5.56;74.81;100887.53;5054302;28;20029;-74
2021/01/17 03:02:14;;;;;;;18.33;9.23;;;;;;;-5.64;74.24;100888.72;5062513;28;20090;-74
2021/01/17 03:04:46;;;;;;;15.37;8.03;;;;;;;-5.76;74.91;100889.72;5065498;28;20044;-74
2021/01/17 03:07:13;;;;;;;11.20;5.93;;;;;;;-5.85;75.35;100889.09;5064639;28;20496;-73
2021/01/17 03:09:41;;;;;;;15.43;8.20;;;;;;;-5.88;74.84;100893.16;5061416;28;20279;-74
2021/01/17 03:12:07;;;;;;;15.50;8.80;;;;;;;-5.90;75.01;100898.19;5061292;28;20506;-74
2021/01/17 03:14:35;;;;;;;15.90;9.33;;;;;;;-5.91;74.44;100906.69;5064601;28;20123;-74
2021/01/17 03:17:03;;;;;;;14.70;8.57;;;;;;;-5.96;75.06;100893.56;5057606;28;20030;-74
2021/01/17 03:19:28;;;;;;;15.13;8.63;;;;;;;-6.03;74.89;100899.09;5062701;28;20083;-74
2021/01/17 03:21:54;;;;;;;16.50;9.47;;;;;;;-6.13;75.08;100895.81;5065450;28;20064;-74
2021/01/17 03:24:19;;;;;;;15.70;8.37;;;;;;;-6.18;76.22;100899.00;5063686;28;20146;-75
2021/01/17 03:26:44;;;;;;;15.70;7.90;;;;;;;-6.21;75.50;100896.22;5062027;28;20035;-75
2021/01/17 03:29:10;;;;;;;18.23;9.87;;;;;;;-6.25;76.27;100907.06;5061997;28;20041;-73
2021/01/17 03:31:35;;;;;;;14.90;7.67;;;;;;;-6.29;76.18;100905.06;5064158;28;20054;-75
2021/01/17 03:34:00;;;;;;;20.00;10.47;;;;;;;-6.34;77.18;100901.34;5064737;28;20399;-74
2021/01/17 03:36:26;;;;;;;15.13;8.17;;;;;;;-6.40;75.77;100906.03;5062513;28;20036;-75
2021/01/17 03:38:51;;;;;;;15.77;9.20;;;;;;;-6.49;75.69;100897.72;5061439;28;20025;-74
2021/01/17 03:41:16;;;;;;;18.70;9.80;;;;;;;-6.55;76.31;100892.16;5062282;28;20380;-74
2021/01/17 03:43:42;;;;;;;20.17;9.37;;;;;;;-6.50;76.73;100898.50;5064520;28;20445;-75
2021/01/17 03:46:07;;;;;;;19.60;8.73;;;;;;;-6.47;76.57;100893.56;5064817;28;20486;-75
2021/01/17 03:48:32;;;;;;;15.53;8.03;;;;;;;-6.56;76.20;100892.97;5061280;28;20475;-73
2021/01/17 03:50:57;;;;;;;17.40;9.73;;;;;;;-6.58;76.80;100889.38;5061151;28;20035;-74
2021/01/17 03:53:23;;;;;;;18.27;9.77;;;;;;;-6.60;76.85;100897.00;5063237;28;20384;-74
2021/01/17 03:55:48;;;;;;;16.67;9.20;;;;;;;-6.64;76.92;100895.88;5064845;28;20474;-75
2021/01/17 03:58:13;;;;;;;18.07;9.53;;;;;;;-6.67;77.87;100902.50;5063748;28;20588;-74
2021/01/17 04:00:39;;;;;;;16.67;9.53;;;;;;;-6.72;76.81;100897.03;5061248;28;20037;-74
2021/01/17 04:03:04;;;;;;;18.07;9.67;;;;;;;-6.80;77.72;100898.19;5061160;28;20053;-75
2021/01/17 04:05:30;;;;;;;18.33;9.53;;;;;;;-6.83;77.30;100898.00;5064240;28;20064;-75
2021/01/17 04:07:55;;;;;;;18.37;9.27;;;;;;;-6.80;77.33;100892.19;5064963;28;20032;-74
2021/01/17 04:10:21;;;;;;;14.83;8.53;;;;;;;-6.73;77.39;100897.84;5063038;28;20044;-75
2021/01/17 04:12:46;;;;;;;16.27;8.30;;;;;;;-6.70;77.03;100895.47;5061258;28;20040;-75
2021/01/17 04:15:11;;;;;;;17.07;8.63;;;;;;;-6.72;76.63;100894.47;5061801;28;20032;-74
2021/01/17 04:17:37;;;;;;;16.83;8.83;;;;;;;-6.76;76.71;100894.16;5064427;28;20032;-75
2021/01/17 04:20:04;;;;;;;17.97;9.33;;;;;;;-6.79;76.35;100897.41;5064402;28;20032;-74
2021/01/17 04:22:29;;;;;;;14.67;7.67;;;;;;;-6.86;76.28;100898.66;5061318;28;20113;-74
2021/01/17 04:24:55;;;;;;;16.27;8.83;;;;;;;-6.91;76.35;100902.59;5043911;28;20484;-75
2021/01/17 04:27:20;;;;;;;18.70;9.60;;;;;;;-6.95;76.79;100899.69;5062911;28;20041;-75
2021/01/17 04:29:45;;;;;;;17.87;8.83;;;;;;;-6.99;77.04;100896.03;5064520;28;20040;-75
2021/01/17 04:32:10;;;;;;;14.37;7.93;;;;;;;-7.13;76.73;100895.06;5064123;28;20032;-74
2021/01/17 04:34:36;;;;;;;21.13;9.27;;;;;;;-7.15;76.60;100903.41;5061318;28;20040;-74
2021/01/17 04:37:01;;;;;;;15.20;8.60;;;;;;;-7.19;77.76;100904.00;5055436;28;20033;-75
2021/01/17 04:39:27;;;;;;;17.27;9.33;;;;;;;-7.17;77.93;100907.59;5063828;28;20040;-75
2021/01/17 04:41:56;;;;;;;15.67;8.40;;;;;;;-7.21;77.27;100909.03;5061140;28;20044;-74
2021/01/17 04:44:31;;;;;;;17.43;9.17;;;;;;;-7.28;77.17;100901.69;5062669;28;20447;-75
2021/01/17 04:46:58;;;;;;;18.93;9.87;;;;;;;-7.26;77.40;100905.22;5064562;28;20040;-74
2021/01/17 04:49:24;;;;;;;16.73;8.67;;;;;;;-7.30;77.38;100908.38;5062228;28;20028;-75
2021/01/17 04:51:50;;;;;;;20.30;9.83;;;;;;;-7.32;77.57;100915.06;5060997;28;20044;-74
2021/01/17 04:54:16;;;;;;;22.43;12.00;;;;;;;-7.38;77.62;100906.94;5061705;28;20041;-74
2021/01/17 04:56:52;;;;;;;16.40;7.83;;;;;;;-7.41;77.65;100905.06;5062310;28;20105;-74
2021/01/17 04:59:29;;;;;;;17.27;9.70;;;;;;;-7.38;77.85;100906.94;5062280;28;20055;-75
2021/01/17 05:02:18;;;;;;;20.90;11.77;;;;;;;-7.58;80.05;100902.94;5041937;28;20044;-74
2021/01/17 05:05:00;;;;;;;28.60;14.20;;;;;;;-7.55;79.66;100898.03;5052743;28;20055;-74
2021/01/17 05:07:34;;;;;;;41.83;19.15;;;;;;;-7.41;79.17;100901.56;5062059;28;20037;-75
2021/01/17 05:10:03;;;;;;;77.87;34.17;;;;;;;-7.46;79.13;100893.59;5063084;28;20068;-74
2021/01/17 05:12:36;;;;;;;43.37;20.00;;;;;;;-7.42;80.00;100897.25;5060314;28;20120;-74
2021/01/17 05:15:03;;;;;;;28.37;14.50;;;;;;;-7.20;79.79;100890.31;5060093;28;20040;-74
2021/01/17 05:17:37;;;;;;;23.80;12.93;;;;;;;-6.99;80.87;100892.59;5062085;28;20087;-74
2021/01/17 05:20:03;;;;;;;21.40;11.00;;;;;;;-6.87;79.84;100886.59;5062765;28;20040;-74
2021/01/17 05:22:30;;;;;;;25.83;13.23;;;;;;;-6.75;79.68;100889.13;5059868;28;20644;-74
2021/01/17 05:24:57;;;;;;;20.10;11.00;;;;;;;-6.65;79.78;100886.41;5059487;28;20063;-74
2021/01/17 05:27:22;;;;;;;19.83;10.17;;;;;;;-6.56;79.73;100886.13;5061057;28;20041;-74
2021/01/17 05:29:47;;;;;;;21.77;10.60;;;;;;;-6.52;79.30;100884.66;5062695;28;20033;-74
2021/01/17 05:32:14;;;;;;;18.83;10.80;;;;;;;-6.45;78.83;100879.16;5061988;28;20452;-74
2021/01/17 05:34:39;;;;;;;24.23;12.57;;;;;;;-6.44;78.72;100884.41;5059284;28;20043;-73
2021/01/17 05:37:06;;;;;;;19.83;10.87;;;;;;;-6.41;79.43;100883.72;5059219;28;20029;-74
2021/01/17 05:39:52;;;;;;;21.63;11.40;;;;;;;-6.35;79.43;100896.97;5061516;28;20041;-74
2021/01/17 05:42:20;;;;;;;21.07;11.87;;;;;;;-6.30;78.58;100893.03;5065235;28;20052;-74
2021/01/17 05:44:45;;;;;;;23.50;12.73;;;;;;;-6.24;78.95;100901.13;5062073;28;20127;-74
2021/01/17 05:47:10;;;;;;;19.90;11.77;;;;;;;-6.18;78.44;100901.56;5063394;28;20037;-75
2021/01/17 05:49:35;;;;;;;22.57;11.80;;;;;;;-6.12;78.07;100901.06;5066771;28;20044;-74
2021/01/17 05:52:10;;;;;;;22.97;11.60;;;;;;;-6.05;78.06;100910.06;5067253;28;20040;-75
2021/01/17 05:54:36;;;;;;;19.97;10.80;;;;;;;-6.03;78.98;100908.50;5041883;28;20178;-75
2021/01/17 05:57:10;;;;;;;18.43;10.10;;;;;;;-5.94;78.38;100897.94;5058561;28;20492;-75
2021/01/17 05:59:37;;;;;;;17.83;9.93;;;;;;;-5.92;77.85;100907.50;5054976;28;20080;-75
2021/01/17 06:02:03;;;;;;;20.30;11.20;;;;;;;-5.92;78.18;100910.06;5063021;28;20041;-75
2021/01/17 06:04:30;;;;;;;20.67;11.33;;;;;;;-5.91;77.50;100911.84;5065321;28;20113;-74
2021/01/17 06:06:57;;;;;;;19.23;11.17;;;;;;;-5.86;77.88;100902.75;5066162;28;20479;-74
2021/01/17 06:09:23;;;;;;;22.17;13.07;;;;;;;-5.77;77.65;100897.31;5063463;28;20032;-73
2021/01/17 06:11:58;;;;;;;51.27;20.67;;;;;;;-5.67;77.44;100897.13;5063014;28;20480;-74
2021/01/17 06:14:25;;;;;;;36.80;19.50;;;;;;;-5.68;77.45;100903.06;5065113;28;20441;-74
2021/01/17 06:16:57;;;;;;;27.20;14.17;;;;;;;-5.61;77.00;100900.06;5066847;28;20040;-74
2021/01/17 06:19:30;;;;;;;20.55;12.32;;;;;;;-5.52;77.14;100898.09;5064621;28;20040;-74
2021/01/17 06:21:59;;;;;;;22.80;12.40;;;;;;;-5.48;76.94;100899.19;5062667;28;20052;-74
2021/01/17 06:24:41;;;;;;;22.00;12.17;;;;;;;-5.35;77.47;100904.31;5064841;28;20037;-75
2021/01/17 06:27:08;;;;;;;20.40;11.53;;;;;;;-5.16;76.71;100905.47;5066092;28;20063;-76
2021/01/17 06:29:40;;;;;;;21.27;12.40;;;;;;;-5.02;76.61;100914.97;5062160;28;20036;-76
2021/01/17 06:32:12;;;;;;;21.60;13.50;;;;;;;-4.79;76.54;100918.03;5062130;28;20040;-76
2021/01/17 06:34:42;;;;;;;20.85;12.20;;;;;;;-4.61;77.00;100919.19;5054468;28;20068;-76
2021/01/17 06:37:10;;;;;;;19.87;11.00;;;;;;;-4.49;76.04;100919.03;5062114;28;20029;-77
2021/01/17 06:39:42;;;;;;;22.53;12.30;;;;;;;-4.36;75.93;100920.66;5054094;28;20037;-76
2021/01/17 06:42:13;;;;;;;23.05;12.70;;;;;;;-4.32;75.42;100922.59;5061947;28;20072;-76
2021/01/17 06:44:39;;;;;;;22.37;12.80;;;;;;;-4.27;75.23;100927.25;5054323;28;20037;-76
2021/01/17 06:47:14;;;;;;;18.20;10.77;;;;;;;-4.23;75.69;100920.59;5061850;28;20095;-76
2021/01/17 06:49:39;;;;;;;19.07;11.27;;;;;;;-4.14;75.17;100925.38;5054321;28;20041;-76
2021/01/17 06:52:05;;;;;;;19.93;12.13;;;;;;;-4.16;75.25;100922.75;5060452;28;20032;-76
2021/01/17 06:54:41;;;;;;;22.63;12.27;;;;;;;-4.13;74.90;100925.50;5064676;28;20025;-75
2021/01/17 06:57:07;;;;;;;20.73;11.93;;;;;;;-4.13;75.56;100930.66;5065192;28;20429;-75
2021/01/17 06:59:34;;;;;;;21.17;11.27;;;;;;;-4.07;75.65;100938.72;5060565;28;20025;-76
2021/01/17 07:02:29;;;;;;;21.70;12.80;;;;;;;-4.02;74.91;100937.31;5057766;28;20429;-76
2021/01/17 07:05:28;;;;;;;18.00;10.70;;;;;;;-3.96;74.66;100931.63;5056250;28;20472;-76
2021/01/17 07:08:24;;;;;;;21.07;12.20;;;;;;;-3.94;75.38;100935.19;5040323;28;20038;-76
2021/01/17 07:10:57;;;;;;;20.73;11.60;;;;;;;-3.95;74.86;100937.69;5055295;28;20068;-76
2021/01/17 07:13:31;;;;;;;17.67;10.70;;;;;;;-3.92;74.82;100940.44;5063151;28;20060;-76
2021/01/17 07:16:02;;;;;;;16.33;9.90;;;;;;;-3.89;75.16;100945.78;5064907;28;20066;-75
2021/01/17 07:18:36;;;;;;;17.77;10.03;;;;;;;-3.88;75.16;100943.28;5062166;28;20042;-76
2021/01/17 07:21:03;;;;;;;19.10;10.87;;;;;;;-3.77;75.00;100941.34;5061285;28;20284;-76
2021/01/17 07:23:29;;;;;;;17.20;10.03;;;;;;;-3.73;74.46;100944.97;5063728;28;20033;-76
2021/01/17 07:25:56;;;;;;;20.33;9.87;;;;;;;-3.73;74.47;100948.44;5064669;28;20032;-76
2021/01/17 07:28:22;;;;;;;17.63;10.27;;;;;;;-3.72;75.07;100944.16;5062612;28;20135;-76
2021/01/17 07:30:48;;;;;;;20.53;10.70;;;;;;;-3.76;74.95;100953.44;5060987;28;20068;-76
2021/01/17 07:33:23;;;;;;;16.90;10.33;;;;;;;-3.65;74.65;100954.91;5061539;28;20040;-76
2021/01/17 07:35:49;;;;;;;18.07;11.20;;;;;;;-3.65;75.24;100957.50;5064331;28;20086;-76
2021/01/17 07:38:17;;;;;;;19.07;11.90;;;;;;;-3.52;74.61;100962.56;5063713;28;20029;-75
2021/01/17 07:40:54;;;;;;;22.23;12.53;;;;;;;-3.46;74.20;100964.59;5043086;28;20411;-76
2021/01/17 07:43:23;;;;;;;20.30;11.87;;;;;;;-3.31;74.58;100960.31;5062137;28;20507;-75
2021/01/17 07:45:49;;;;;;;17.77;10.13;;;;;;;-3.14;74.17;100957.81;5064266;28;20024;-76
2021/01/17 07:48:16;;;;;;;15.13;9.33;;;;;;;-3.00;74.43;100951.69;5063400;28;20498;-76
2021/01/17 07:50:43;;;;;;;14.93;8.93;;;;;;;-2.83;73.86;100960.34;5059351;28;20029;-76
2021/01/17 07:53:34;;;;;;;16.13;9.53;;;;;;;-2.71;72.28;100965.31;5060389;28;20033;-75
2021/01/17 07:56:03;;;;;;;16.23;10.17;;;;;;;-2.70;72.33;100962.81;5055839;28;20036;-75
2021/01/17 07:58:36;;;;;;;18.30;11.03;;;;;;;-2.73;72.25;100967.78;5063167;28;20086;-76
2021/01/17 08:01:02;;;;;;;18.20;10.60;;;;;;;-2.69;72.63;100964.59;5052102;28;20029;-76
2021/01/17 08:03:27;;;;;;;17.93;10.80;;;;;;;-2.54;72.26;100966.19;5057222;28;20087;-76
2021/01/17 08:05:55;;;;;;;19.53;11.40;;;;;;;-2.41;71.79;100971.25;5053943;28;20064;-76
2021/01/17 08:08:44;;;;;;;20.83;10.50;;;;;;;-2.32;71.78;100976.00;5065216;28;20029;-76
2021/01/17 08:11:09;;;;;;;19.30;10.77;;;;;;;-2.26;71.61;100971.13;5061425;28;20033;-75
2021/01/17 08:13:35;;;;;;;17.70;10.67;;;;;;;-2.15;72.10;100974.28;5060116;28;20086;-76
2021/01/17 08:16:10;;;;;;;17.67;9.83;;;;;;;-2.19;71.33;100980.13;5067368;28;20086;-76
2021/01/17 08:18:36;;;;;;;19.50;10.90;;;;;;;-2.12;72.06;100977.03;5052303;28;20387;-76
2021/01/17 08:21:17;;;;;;;17.53;11.07;;;;;;;-1.99;71.44;100987.22;5060105;28;20077;-76
2021/01/17 08:24:21;;;;;;;17.90;11.20;;;;;;;-1.96;70.68;100981.31;5052676;28;20499;-76
2021/01/17 08:27:02;;;;;;;19.03;10.60;;;;;;;-1.93;71.21;100977.19;5029290;28;20136;-76
2021/01/17 08:29:28;;;;;;;17.23;10.20;;;;;;;-1.81;71.69;100977.81;5029325;28;20052;-76
2021/01/17 08:31:53;;;;;;;17.90;10.13;;;;;;;-1.70;70.68;100973.19;5048200;28;20048;-75
2021/01/17 08:34:27;;;;;;;17.43;10.17;;;;;;;-1.68;70.97;100971.53;5061787;28;20070;-76
2021/01/17 08:36:56;;;;;;;17.07;10.60;;;;;;;-1.59;70.56;100979.78;5059843;28;20037;-76
2021/01/17 08:39:43;;;;;;;20.30;11.27;;;;;;;-1.58;69.91;100978.06;5061581;28;20033;-76
2021/01/17 08:42:27;;;;;;;16.50;9.97;;;;;;;-1.60;70.24;100979.69;5063013;28;20501;-76
2021/01/17 08:44:54;;;;;;;15.97;9.67;;;;;;;-1.48;70.48;100977.72;5054085;28;20029;-76
2021/01/17 08:47:20;;;;;;;20.57;11.80;;;;;;;-1.29;70.11;100983.78;5060986;28;20045;-77
2021/01/17 08:49:46;;;;;;;17.27;9.97;;;;;;;-1.22;69.90;100986.75;5061726;28;20127;-76
2021/01/17 08:52:12;;;;;;;18.10;10.83;;;;;;;-1.19;69.63;100981.72;5062592;28;20120;-76
2021/01/17 08:54:48;;;;;;;16.13;10.20;;;;;;;-1.17;69.13;100984.38;5059595;28;20041;-76
2021/01/17 08:57:42;;;;;;;17.30;9.73;;;;;;;-1.07;68.59;100986.63;5060296;28;20425;-75
2021/01/17 09:00:14;;;;;;;15.67;9.63;;;;;;;-1.07;68.67;100988.28;5063011;28;20514;-76
2021/01/17 09:02:40;;;;;;;15.85;9.48;;;;;;;-0.98;68.39;100989.63;5051827;28;20106;-75
2021/01/17 09:05:16;;;;;;;14.97;9.17;;;;;;;-0.84;68.14;100984.22;5059474;28;20700;-75
2021/01/17 09:07:42;;;;;;;14.70;9.83;;;;;;;-0.74;68.31;100981.22;5052274;28;20102;-76
2021/01/17 09:10:09;;;;;;;12.77;8.17;;;;;;;-0.65;67.70;100992.03;5059351;28;20076;-76
2021/01/17 09:12:37;;;;;;;15.63;8.77;;;;;;;-0.62;67.27;100992.19;5062510;28;20024;-76
2021/01/17 09:15:18;;;;;;;14.17;8.73;;;;;;;-0.62;67.54;100997.38;5062175;28;20544;-76
2021/01/17 09:17:57;;;;;;;13.87;9.13;;;;;;;-0.47;66.36;101002.38;5049577;28;20067;-76
2021/01/17 09:20:25;;;;;;;15.40;8.00;;;;;;;-0.36;67.19;101005.47;5060831;28;20040;-76
2021/01/17 09:22:50;;;;;;;12.30;8.60;;;;;;;-0.33;66.87;101003.00;5059207;28;20037;-76
2021/01/17 09:25:16;;;;;;;14.10;9.27;;;;;;;-0.29;65.46;101002.31;5060278;28;20039;-76
2021/01/17 09:27:42;;;;;;;11.60;7.93;;;;;;;-0.15;66.04;101006.41;5062730;28;20163;-76
2021/01/17 09:30:10;;;;;;;13.57;8.67;;;;;;;-0.01;65.83;101005.31;5062765;28;20127;-74
2021/01/17 09:32:37;;;;;;;14.37;8.90;;;;;;;0.11;65.39;101009.28;5049924;28;20495;-74
2021/01/17 09:35:05;;;;;;;14.93;9.43;;;;;;;0.10;64.52;101013.56;5059327;28;20033;-73
2021/01/17 09:37:33;;;;;;;13.00;8.60;;;;;;;0.13;64.98;101016.31;5062115;28;20550;-74
2021/01/17 09:39:58;;;;;;;15.23;10.17;;;;;;;0.15;64.59;101022.44;5062669;28;20044;-74
2021/01/17 09:42:26;;;;;;;15.07;10.13;;;;;;;0.13;63.68;101023.19;5060442;28;20037;-74
2021/01/17 09:44:57;;;;;;;15.47;9.77;;;;;;;0.07;63.83;101018.63;5059231;28;20040;-73
2021/01/17 09:47:24;;;;;;;15.10;10.07;;;;;;;0.06;64.07;101021.16;5060821;28;20033;-74
2021/01/17 09:49:50;;;;;;;15.57;10.30;;;;;;;0.13;64.03;101023.19;5062530;28;20040;-74
2021/01/17 09:52:17;;;;;;;16.13;9.80;;;;;;;0.25;63.91;101023.72;5061483;28;20106;-74
2021/01/17 09:54:45;;;;;;;15.67;10.50;;;;;;;0.37;63.95;101023.38;5059159;28;20033;-74
2021/01/17 09:57:18;;;;;;;15.60;10.23;;;;;;;0.40;63.19;101018.31;5061437;28;20064;-74
2021/01/17 09:59:43;;;;;;;15.53;10.27;;;;;;;0.51;64.02;101010.97;5054329;28;20041;-73
2021/01/17 10:02:09;;;;;;;17.90;10.93;;;;;;;0.67;62.98;101018.59;5049332;28;20036;-73
2021/01/17 10:04:36;;;;;;;17.67;10.70;;;;;;;0.70;62.70;101010.91;5051421;28;20025;-70
2021/01/17 10:07:02;;;;;;;14.73;9.97;;;;;;;0.56;62.32;101012.06;5057840;28;20040;-70
2021/01/17 10:09:27;;;;;;;17.50;11.13;;;;;;;0.68;61.51;101014.25;5053821;28;20036;-70
2021/01/17 10:12:00;;;;;;;16.80;11.10;;;;;;;0.66;60.16;101011.63;5056460;28;20037;-70
2021/01/17 10:14:29;;;;;;;15.10;10.80;;;;;;;0.79;60.38;101020.81;5057631;28;20040;-70
2021/01/17 10:16:57;;;;;;;15.53;10.60;;;;;;;0.90;61.22;101021.25;5060091;28;20040;-70
2021/01/17 10:19:24;;;;;;;20.30;12.30;;;;;;;0.60;60.33;101016.53;5042625;28;20076;-70
2021/01/17 10:21:49;;;;;;;18.57;12.23;;;;;;;0.29;61.39;101025.66;5063413;28;20044;-70
2021/01/17 10:24:20;;;;;;;16.77;10.77;;;;;;;0.54;61.25;101034.47;5058991;28;20036;-70
2021/01/17 10:26:49;;;;;;;14.73;10.17;;;;;;;0.82;60.52;101024.41;5064095;28;20040;-70
2021/01/17 10:29:18;;;;;;;15.47;10.47;;;;;;;0.98;60.56;101030.25;5056727;28;20056;-69
2021/01/17 10:31:48;;;;;;;17.87;12.20;;;;;;;1.01;59.11;101027.75;5061437;28;20041;-70
2021/01/17 10:34:21;;;;;;;15.57;10.77;;;;;;;0.99;59.95;101025.09;5043823;28;20376;-70
2021/01/17 10:36:48;;;;;;;16.17;11.23;;;;;;;1.03;60.66;101024.41;5061938;28;20376;-71
2021/01/17 10:39:19;;;;;;;17.70;11.23;;;;;;;1.03;60.34;101032.19;5062465;28;20102;-70
2021/01/17 10:41:45;;;;;;;18.20;11.48;;;;;;;0.94;60.72;101033.53;5065390;28;20079;-70
2021/01/17 10:44:14;;;;;;;17.40;11.23;;;;;;;1.07;60.71;101028.91;5064870;28;20032;-70
2021/01/17 10:46:46;;;;;;;17.73;11.97;;;;;;;1.22;59.40;101031.22;5061036;28;20040;-70
2021/01/17 10:49:21;;;;;;;16.95;10.50;;;;;;;1.28;59.40;101036.69;5063239;28;20479;-70
2021/01/17 10:51:50;;;;;;;17.63;11.87;;;;;;;1.12;59.02;101034.28;5061695;28;20487;-70
2021/01/17 10:54:21;;;;;;;16.80;11.37;;;;;;;0.83;58.62;101033.97;5063271;28;20048;-71
2021/01/17 10:56:47;;;;;;;16.73;11.80;;;;;;;0.70;59.93;101043.81;5067993;28;20040;-71
2021/01/17 10:59:16;;;;;;;16.87;11.77;;;;;;;0.59;60.55;101051.16;5065277;28;20065;-69
2021/01/17 11:01:46;;;;;;;17.97;11.40;;;;;;;0.46;60.73;101054.94;5057461;28;20398;-70
2021/01/17 11:04:14;;;;;;;18.07;11.97;;;;;;;0.55;60.71;101057.03;5057150;28;20052;-70
2021/01/17 11:06:42;;;;;;;19.27;11.87;;;;;;;0.58;60.94;101064.97;5064830;28;20072;-70
2021/01/17 11:09:12;;;;;;;18.50;12.20;;;;;;;0.56;61.04;101058.81;5056677;28;20041;-70
2021/01/17 11:11:48;;;;;;;17.87;12.10;;;;;;;0.64;61.62;101060.03;5053579;28;20032;-70
2021/01/17 11:14:14;;;;;;;21.20;12.07;;;;;;;0.62;61.14;101067.75;5061720;28;20055;-70
2021/01/17 11:16:42;;;;;;;17.30;11.87;;;;;;;0.71;61.25;101066.34;5053118;28;20563;-69
2021/01/17 11:19:12;;;;;;;20.07;11.57;;;;;;;0.83;60.73;101062.56;5056881;28;20059;-69
2021/01/17 11:21:38;;;;;;;17.90;12.00;;;;;;;0.80;61.10;101058.94;5055211;28;20410;-69
2021/01/17 11:24:05;;;;;;;18.13;13.07;;;;;;;0.83;61.44;101059.06;5064386;28;20046;-69